Beltdiep — PBYF — position and weather

sailwx.info

Track history (hours):
 
Tides and Currents Weather Stations Pressure Air Temp Water Temp Dewpoint Dewpoint Depression Visibility Wind Speed Wind Dir Waves Ship Positions

Beltdiep

Last reported at 2014-Aug-22 08:32 UTC. Time now 2014-Aug-23 17:27 UTC.
Position N 36°18' E 015°14'.

Length 107 m; draft 5.5 m.

Type: Cargo ship. MMSI: 246671000.

Date/timePositionNaut miles runAvg speedWind from/ knotsBaromVisibWave heightAir tempDewpointWater temp
2014-Aug-22 08:32N 36°18' E 015°14'9 9.1
2014-Aug-22 07:32N 36°21' E 015°03'15 7.3
2014-Aug-22 05:30N 36°26' E 014°46'910.0
2014-Aug-22 04:33N 36°29' E 014°34'1010.2
2014-Aug-22 03:33N 36°32' E 014°22'1010.1
2014-Aug-22 02:33N 36°35' E 014°11'10 9.9
2014-Aug-22 01:33N 36°38' E 013°59'10 9.8
2014-Aug-22 00:34N 36°41' E 013°47'10 9.7
2014-Aug-21 23:33N 36°44' E 013°36'10 9.6
2014-Aug-21 22:31N 36°47' E 013°24'13 9.6
2014-Aug-21 21:08N 36°51' E 013°08'7 9.6
2014-Aug-21 20:24N 36°53' E 012°59'9 9.4
2014-Aug-21 19:27N 36°56' E 012°49'8 9.6
2014-Aug-21 18:33N 36°58' E 012°39'10 9.8
2014-Aug-21 17:33N 37°01' E 012°27'10 9.9
2014-Aug-21 16:34N 37°04' E 012°15'1110.1
2014-Aug-21 15:31N 37°07' E 012°03'31 9.7
2014-Aug-21 12:21N 37°16' E 011°25'8 9.5
2014-Aug-21 11:33N 37°18' E 011°17'10 9.7
2014-Aug-21 10:32N 37°23' E 011°05'1010.2
2014-Aug-21 09:33N 37°25' E 010°53'1010.5
2014-Aug-21 08:33N 37°28' E 010°40'1010.4
2014-Aug-21 07:34N 37°30' E 010°28'1010.4
2014-Aug-21 06:33N 37°32' E 010°15'1110.6
2014-Aug-21 05:31N 37°33' E 010°01'1010.6
2014-Aug-21 04:32N 37°34' E 009°48'2210.6
2014-Aug-21 02:27N 37°35' E 009°20'1010.6
2014-Aug-21 01:32N 37°36' E 009°08'245 9.8
2014-Aug-20 00:34N 37°18' E 003°60'7710.3
2014-Aug-19 17:04N 37°06' E 002°24'105 9.9
2014-Aug-19 06:30N 36°43' E 000°16'4410.6
2014-Aug-19 02:22N 36°33' W 000°37'230 9.6
2014-Aug-18 02:29N 35°55' W 005°18'2 1.7
2014-Aug-18 01:33N 35°54' W 005°19'0 0.0
2014-Aug-18 00:30N 35°54' W 005°19'162 6.4
2014-Aug-16 23:15N 36°26' W 008°36'7 9.5
2014-Aug-16 22:33N 36°28' W 008°44'13 9.7
2014-Aug-16 21:13N 36°31' W 008°59'25 9.4
2014-Aug-16 18:33N 36°43' W 009°27'10 9.4
2014-Aug-16 17:26N 36°52' W 009°33'8 9.5
2014-Aug-16 16:33N 37°01' W 009°35'  
Track history (hours):
 
Tides and Currents Weather Stations Pressure Air Temp Water Temp Dewpoint Dewpoint Depression Visibility Wind Speed Wind Dir Waves Ship Positions

Beltdiep

Last reported at 2014-Aug-22 08:32 UTC. Time now 2014-Aug-23 17:27 UTC.
Position N 36°18' E 015°14'.

Length 107 m; draft 5.5 m.

Type: Cargo ship. MMSI: 246671000.

Date/timePositionNaut miles runAvg speedWind from/ knotsBaromVisibWave heightAir tempDewpointWater temp
2014-Aug-22 08:32N 36°18' E 015°14'9 9.1
2014-Aug-22 07:32N 36°21' E 015°03'15 7.3
2014-Aug-22 05:30N 36°26' E 014°46'910.0
2014-Aug-22 04:33N 36°29' E 014°34'1010.2
2014-Aug-22 03:33N 36°32' E 014°22'1010.1
2014-Aug-22 02:33N 36°35' E 014°11'10 9.9
2014-Aug-22 01:33N 36°38' E 013°59'10 9.8
2014-Aug-22 00:34N 36°41' E 013°47'10 9.7
2014-Aug-21 23:33N 36°44' E 013°36'10 9.6
2014-Aug-21 22:31N 36°47' E 013°24'13 9.6
2014-Aug-21 21:08N 36°51' E 013°08'7 9.6
2014-Aug-21 20:24N 36°53' E 012°59'9 9.4
2014-Aug-21 19:27N 36°56' E 012°49'8 9.6
2014-Aug-21 18:33N 36°58' E 012°39'10 9.8
2014-Aug-21 17:33N 37°01' E 012°27'10 9.9
2014-Aug-21 16:34N 37°04' E 012°15'1110.1
2014-Aug-21 15:31N 37°07' E 012°03'31 9.7
2014-Aug-21 12:21N 37°16' E 011°25'8 9.5
2014-Aug-21 11:33N 37°18' E 011°17'10 9.7
2014-Aug-21 10:32N 37°23' E 011°05'1010.2
2014-Aug-21 09:33N 37°25' E 010°53'1010.5
2014-Aug-21 08:33N 37°28' E 010°40'1010.4
2014-Aug-21 07:34N 37°30' E 010°28'1010.4
2014-Aug-21 06:33N 37°32' E 010°15'1110.6
2014-Aug-21 05:31N 37°33' E 010°01'1010.6
2014-Aug-21 04:32N 37°34' E 009°48'2210.6
2014-Aug-21 02:27N 37°35' E 009°20'1010.6
2014-Aug-21 01:32N 37°36' E 009°08'245 9.8
2014-Aug-20 00:34N 37°18' E 003°60'7710.3
2014-Aug-19 17:04N 37°06' E 002°24'105 9.9
2014-Aug-19 06:30N 36°43' E 000°16'4410.6
2014-Aug-19 02:22N 36°33' W 000°37'230 9.6
2014-Aug-18 02:29N 35°55' W 005°18'2 1.7
2014-Aug-18 01:33N 35°54' W 005°19'0 0.0
2014-Aug-18 00:30N 35°54' W 005°19'162 6.4
2014-Aug-16 23:15N 36°26' W 008°36'7 9.5
2014-Aug-16 22:33N 36°28' W 008°44'13 9.7
2014-Aug-16 21:13N 36°31' W 008°59'25 9.4
2014-Aug-16 18:33N 36°43' W 009°27'10 9.4
2014-Aug-16 17:26N 36°52' W 009°33'8 9.5
2014-Aug-16 16:33N 37°01' W 009°35'  

Dump ship's entire track history